Time;durP1;ratioP1;P1;durP2;ratioP2;P2;SDS_P1;SDS_P2;PMS_P1;PMS_P2;Temp;Humidity;BMP_temperature;BMP_pressure;BME280_temperature;BME280_humidity;BME280_pressure;Samples;Min_cycle;Max_cycle;Signal;HPM_P1;HPM_P2
2022/05/08 00:01:39;;;;;;;5.28;1.70;;;17.80;96.70;;;;;;5063721;28;20048;-85
2022/05/08 00:04:08;;;;;;;2.53;1.70;;;17.80;96.70;;;;;;5066754;28;20041;-86
2022/05/08 00:06:36;;;;;;;2.78;1.63;;;17.90;96.70;;;;;;5068058;28;20502;-86
2022/05/08 00:09:04;;;;;;;4.88;2.35;;;17.90;96.70;;;;;;5056827;28;20041;-86
2022/05/08 00:11:33;;;;;;;4.68;1.77;;;17.90;96.70;;;;;;5066083;28;20059;-86
2022/05/08 00:14:01;;;;;;;5.28;2.03;;;17.90;96.70;;;;;;5061425;28;20044;-86
2022/05/08 00:16:31;;;;;;;6.97;2.20;;;17.90;96.70;;;;;;5056784;28;20041;-86
2022/05/08 00:18:59;;;;;;;3.10;1.63;;;17.80;96.70;;;;;;5062424;28;20054;-85
2022/05/08 00:21:28;;;;;;;4.40;1.85;;;17.80;96.70;;;;;;5048822;28;20140;-85
2022/05/08 00:23:56;;;;;;;5.05;1.65;;;17.70;96.70;;;;;;5059012;28;20044;-86
2022/05/08 00:26:29;;;;;;;3.47;2.10;;;17.60;96.70;;;;;;5052378;28;20572;-85
2022/05/08 00:28:57;;;;;;;3.58;1.60;;;17.60;96.70;;;;;;5066649;28;20059;-85
2022/05/08 00:31:26;;;;;;;2.70;1.58;;;17.60;96.70;;;;;;5063939;28;20140;-86
2022/05/08 00:33:56;;;;;;;4.55;1.65;;;17.50;96.70;;;;;;5056961;28;20041;-86
2022/05/08 00:36:25;;;;;;;6.25;1.70;;;17.60;96.70;;;;;;5057301;28;20447;-86
2022/05/08 00:38:55;;;;;;;5.13;1.52;;;17.60;96.70;;;;;;5065128;28;20486;-84
2022/05/08 00:41:26;;;;;;;3.80;1.70;;;17.60;96.70;;;;;;5037562;28;20048;-84
2022/05/08 00:43:55;;;;;;;3.92;1.30;;;17.60;96.70;;;;;;5044965;28;20064;-84
2022/05/08 00:46:23;;;;;;;2.85;1.52;;;17.60;96.70;;;;;;5061301;28;20032;-84
2022/05/08 00:48:52;;;;;;;3.15;1.40;;;17.60;96.70;;;;;;5051106;28;20581;-84
2022/05/08 00:51:23;;;;;;;2.78;1.63;;;17.50;96.70;;;;;;5064027;28;20052;-84
2022/05/08 00:53:53;;;;;;;4.38;1.60;;;17.00;96.70;;;;;;5065644;28;20043;-83
2022/05/08 00:56:21;;;;;;;2.88;1.50;;;16.90;96.70;;;;;;5067486;28;20044;-83
2022/05/08 00:58:52;;;;;;;3.63;1.33;;;17.00;96.70;;;;;;5046834;28;20052;-83
2022/05/08 01:01:20;;;;;;;3.08;1.70;;;17.10;96.70;;;;;;5067205;28;20414;-83
2022/05/08 01:03:49;;;;;;;3.58;1.67;;;17.10;96.70;;;;;;5059964;28;20056;-83
2022/05/08 01:06:18;;;;;;;3.53;1.75;;;17.10;96.70;;;;;;5050733;28;20135;-83
2022/05/08 01:08:50;;;;;;;2.92;1.58;;;17.10;96.70;;;;;;5063644;28;20052;-83
2022/05/08 01:11:19;;;;;;;2.53;1.60;;;17.10;96.70;;;;;;5066999;28;20057;-83
2022/05/08 01:13:47;;;;;;;3.17;1.73;;;17.20;96.70;;;;;;5066690;28;20042;-83
2022/05/08 01:16:17;;;;;;;4.22;2.08;;;17.20;96.70;;;;;;5057365;28;20131;-83
2022/05/08 01:18:46;;;;;;;3.60;1.73;;;17.20;96.70;;;;;;5058043;28;20064;-83
2022/05/08 01:21:16;;;;;;;2.80;1.50;;;17.20;96.70;;;;;;5067789;28;20058;-83
2022/05/08 01:23:46;;;;;;;2.67;1.80;;;17.20;96.70;;;;;;5066665;28;20052;-83
2022/05/08 01:26:21;;;;;;;4.55;1.60;;;17.20;96.70;;;;;;5056520;28;20052;-83
2022/05/08 01:28:49;;;;;;;4.57;1.67;;;17.20;96.70;;;;;;5063807;28;20853;-82
2022/05/08 01:31:17;;;;;;;3.83;1.50;;;17.20;96.70;;;;;;5055331;28;20627;-83
2022/05/08 01:33:54;;;;;;;3.63;1.90;;;17.20;96.70;;;;;;5060790;28;20117;-83
2022/05/08 01:36:22;;;;;;;4.18;1.80;;;17.20;96.70;;;;;;5038857;28;20076;-85
2022/05/08 01:38:56;;;;;;;3.20;1.40;;;17.20;96.70;;;;;;5045577;28;20041;-85
2022/05/08 01:41:24;;;;;;;3.38;1.65;;;17.20;96.70;;;;;;5045184;28;20132;-86
2022/05/08 01:43:53;;;;;;;4.15;1.80;;;17.30;96.70;;;;;;5066073;28;20063;-85
2022/05/08 01:46:21;;;;;;;3.53;1.52;;;17.30;96.70;;;;;;5061184;28;20582;-86
2022/05/08 01:48:49;;;;;;;3.92;1.83;;;17.30;96.70;;;;;;5056617;28;20413;-86
2022/05/08 01:51:17;;;;;;;2.88;1.58;;;17.30;96.70;;;;;;5060216;28;20135;-86
2022/05/08 01:53:45;;;;;;;4.60;1.70;;;17.20;96.70;;;;;;5055728;28;20108;-85
2022/05/08 01:56:15;;;;;;;4.25;1.42;;;17.20;96.70;;;;;;5046360;28;20422;-85
2022/05/08 01:58:43;;;;;;;3.65;1.63;;;17.10;96.70;;;;;;5065938;28;20067;-85
2022/05/08 02:01:11;;;;;;;4.00;1.48;;;16.90;96.70;;;;;;5063970;28;20051;-84
2022/05/08 02:03:40;;;;;;;4.30;1.92;;;16.90;96.70;;;;;;5059501;28;20070;-85
2022/05/08 02:06:08;;;;;;;3.30;1.90;;;16.80;96.70;;;;;;5049670;28;20076;-85
2022/05/08 02:08:36;;;;;;;4.43;2.08;;;16.80;96.70;;;;;;5066942;28;20051;-85
2022/05/08 02:11:06;;;;;;;2.55;1.55;;;16.90;96.70;;;;;;5064337;28;20288;-86
2022/05/08 02:13:36;;;;;;;2.33;1.63;;;16.90;96.70;;;;;;5063866;28;20072;-85
2022/05/08 02:16:04;;;;;;;3.47;2.33;;;16.90;96.70;;;;;;5061701;28;20118;-85
2022/05/08 02:18:33;;;;;;;4.05;1.80;;;16.80;96.70;;;;;;5066327;28;20151;-85
2022/05/08 02:21:02;;;;;;;3.20;1.70;;;16.70;96.70;;;;;;5048651;28;20136;-86
2022/05/08 02:23:30;;;;;;;5.28;2.22;;;16.60;96.70;;;;;;5066416;28;20048;-86
2022/05/08 02:25:58;;;;;;;3.28;1.88;;;16.70;96.70;;;;;;5065083;28;20048;-86
2022/05/08 02:28:27;;;;;;;3.85;1.65;;;16.70;96.70;;;;;;5049595;28;20045;-84
2022/05/08 02:30:57;;;;;;;5.55;2.40;;;16.50;96.70;;;;;;5057068;28;20051;-85
2022/05/08 02:33:25;;;;;;;3.65;1.90;;;16.40;96.70;;;;;;5049074;28;20132;-86
2022/05/08 02:35:53;;;;;;;3.45;2.10;;;16.30;96.70;;;;;;5049662;28;20099;-86
2022/05/08 02:38:21;;;;;;;5.50;2.63;;;16.40;96.70;;;;;;5048555;28;20048;-86
2022/05/08 02:40:50;;;;;;;5.13;2.25;;;16.50;96.70;;;;;;5060940;28;20049;-85
2022/05/08 02:43:20;;;;;;;3.58;1.92;;;16.40;96.70;;;;;;5064190;28;20048;-86
2022/05/08 02:45:50;;;;;;;4.43;2.20;;;16.30;96.70;;;;;;5056974;28;20078;-86
2022/05/08 02:48:20;;;;;;;2.95;2.00;;;16.30;96.70;;;;;;5056172;28;20036;-85
2022/05/08 02:50:48;;;;;;;2.55;2.22;;;16.20;96.70;;;;;;5049790;28;20514;-86
2022/05/08 02:53:20;;;;;;;5.53;2.20;;;16.20;96.70;;;;;;5044125;28;20049;-85
2022/05/08 02:58:39;;;;;;;6.18;2.38;;;16.30;96.70;;;;;;5053226;28;20055;-86
2022/05/08 03:01:07;;;;;;;3.50;2.15;;;16.40;96.70;;;;;;5065434;28;20094;-85
2022/05/08 03:03:37;;;;;;;5.28;2.03;;;16.30;96.70;;;;;;5065109;28;20064;-86
2022/05/08 03:06:06;;;;;;;3.60;1.92;;;16.30;96.70;;;;;;5060431;28;20147;-85
2022/05/08 03:08:34;;;;;;;6.75;2.22;;;16.30;96.70;;;;;;5058806;28;20037;-86
2022/05/08 03:14:09;;;;;;;3.90;2.40;;;16.30;96.70;;;;;;5037416;28;20052;-86
2022/05/08 03:16:39;;;;;;;3.60;2.30;;;16.40;96.70;;;;;;5030121;28;20046;-86
2022/05/08 03:19:09;;;;;;;5.22;3.20;;;16.30;96.70;;;;;;5039689;28;20208;-86
2022/05/08 03:21:38;;;;;;;3.47;2.35;;;16.20;96.70;;;;;;5026300;28;20064;-86
2022/05/08 03:24:07;;;;;;;5.47;3.13;;;16.10;96.70;;;;;;5012871;28;20072;-85
2022/05/08 03:26:50;;;;;;;7.07;2.90;;;16.00;96.70;;;;;;5041923;28;20099;-86
2022/05/08 03:29:18;;;;;;;7.28;3.35;;;16.00;96.70;;;;;;5041428;28;20041;-85
2022/05/08 03:31:47;;;;;;;4.97;3.22;;;16.10;96.70;;;;;;5036838;28;20147;-86
2022/05/08 03:34:17;;;;;;;3.53;2.75;;;16.10;96.70;;;;;;5015028;28;20130;-86
2022/05/08 03:36:45;;;;;;;4.93;2.97;;;16.00;96.70;;;;;;5050336;28;20041;-86
2022/05/08 03:39:13;;;;;;;6.32;2.88;;;16.00;96.70;;;;;;5020703;28;20140;-85
2022/05/08 03:41:41;;;;;;;5.13;2.75;;;16.00;96.70;;;;;;5029140;28;20052;-85
2022/05/08 03:44:09;;;;;;;5.28;2.83;;;16.10;96.70;;;;;;5023647;28;20057;-86
2022/05/08 03:46:38;;;;;;;5.55;3.05;;;16.00;96.70;;;;;;5056812;28;20045;-85
2022/05/08 03:49:06;;;;;;;5.72;2.70;;;15.80;96.70;;;;;;5062739;28;20063;-86
2022/05/08 03:51:36;;;;;;;4.82;2.45;;;15.90;96.70;;;;;;5059578;28;20114;-86
2022/05/08 03:54:08;;;;;;;3.60;2.30;;;15.90;96.70;;;;;;5070309;28;20037;-86
2022/05/08 03:56:37;;;;;;;4.50;2.70;;;15.90;96.70;;;;;;5052540;28;20045;-85
2022/05/08 03:59:05;;;;;;;7.65;2.80;;;15.90;96.70;;;;;;5068638;28;20040;-86
2022/05/08 04:01:33;;;;;;;4.28;2.50;;;15.90;96.70;;;;;;5068855;28;20048;-85
2022/05/08 04:04:04;;;;;;;5.90;2.42;;;15.80;96.70;;;;;;5069006;28;20098;-86
2022/05/08 04:06:32;;;;;;;4.32;2.17;;;15.80;96.70;;;;;;5048117;28;20045;-86
2022/05/08 04:09:02;;;;;;;4.05;1.88;;;15.90;96.70;;;;;;5048888;28;20045;-86
2022/05/08 04:11:30;;;;;;;4.20;2.53;;;15.80;96.70;;;;;;5067010;28;20193;-86
2022/05/08 04:13:58;;;;;;;4.72;2.20;;;15.80;96.70;;;;;;5068434;28;20047;-86
2022/05/08 04:16:26;;;;;;;2.85;1.65;;;15.80;96.70;;;;;;5057229;28;20579;-86
2022/05/08 04:18:54;;;;;;;3.60;1.67;;;15.80;96.70;;;;;;5062541;28;20037;-85
2022/05/08 04:21:23;;;;;;;3.15;1.77;;;15.80;96.70;;;;;;5060106;28;20481;-86
2022/05/08 04:26:39;;;;;;;4.28;1.90;;;15.90;96.70;;;;;;5068583;28;20048;-86
2022/05/08 04:29:08;;;;;;;5.30;1.67;;;15.80;96.70;;;;;;5050016;28;20502;-85
2022/05/08 04:31:37;;;;;;;3.33;1.65;;;15.80;96.70;;;;;;5059854;28;21026;-85
2022/05/08 04:34:05;;;;;;;6.32;2.05;;;15.80;96.70;;;;;;5042758;28;20438;-84
2022/05/08 04:36:33;;;;;;;5.00;1.50;;;15.80;96.70;;;;;;5063467;28;20053;-85
2022/05/08 04:39:01;;;;;;;3.45;1.90;;;15.90;96.70;;;;;;5056532;28;20136;-85
2022/05/08 04:41:29;;;;;;;6.25;1.75;;;15.90;96.70;;;;;;5062533;28;20040;-86
2022/05/08 04:44:00;;;;;;;3.53;1.70;;;15.90;96.70;;;;;;5067954;28;20052;-85
2022/05/08 04:46:29;;;;;;;7.75;2.40;;;15.90;96.70;;;;;;5068035;28;20040;-86
2022/05/08 04:49:03;;;;;;;2.92;1.70;;;16.00;96.70;;;;;;5067426;28;20025;-86
2022/05/08 04:51:46;;;;;;;2.78;1.95;;;16.00;96.70;;;;;;5064963;28;20041;-85
2022/05/08 04:54:15;;;;;;;4.47;1.67;;;16.00;96.70;;;;;;5066788;28;20101;-86
2022/05/08 04:56:43;;;;;;;4.53;2.03;;;15.90;96.70;;;;;;5058863;28;20062;-86
2022/05/08 04:59:13;;;;;;;4.70;1.73;;;16.00;96.70;;;;;;5039773;28;20132;-86
2022/05/08 05:01:42;;;;;;;5.13;2.20;;;16.00;96.70;;;;;;5061814;28;20125;-85
2022/05/08 05:04:10;;;;;;;4.88;1.90;;;16.10;96.70;;;;;;5058589;28;20049;-85
2022/05/08 05:06:40;;;;;;;4.65;1.80;;;16.10;96.70;;;;;;5041861;28;20525;-85
2022/05/08 05:09:08;;;;;;;3.38;1.90;;;16.10;96.70;;;;;;5066350;28;20440;-86
2022/05/08 05:11:37;;;;;;;4.22;2.00;;;16.20;96.70;;;;;;5061553;28;20521;-86
2022/05/08 05:14:05;;;;;;;2.15;1.63;;;16.20;96.70;;;;;;5059411;28;20350;-86
2022/05/08 05:16:34;;;;;;;6.28;2.38;;;16.30;96.70;;;;;;5061656;28;20055;-86
2022/05/08 05:19:04;;;;;;;5.35;1.90;;;16.30;96.70;;;;;;5060386;28;20048;-86
2022/05/08 05:21:32;;;;;;;5.43;2.03;;;16.30;96.70;;;;;;5067090;28;20044;-86
2022/05/08 05:24:01;;;;;;;2.90;1.70;;;16.30;96.70;;;;;;5052320;28;20114;-86
2022/05/08 05:26:29;;;;;;;3.65;2.10;;;16.40;96.70;;;;;;5063490;28;20040;-85
2022/05/08 05:28:57;;;;;;;3.15;1.80;;;16.40;96.70;;;;;;5065724;28;20121;-85
2022/05/08 05:31:26;;;;;;;2.95;1.60;;;16.40;96.70;;;;;;5064800;28;20044;-86
2022/05/08 05:33:55;;;;;;;4.50;1.98;;;16.50;96.70;;;;;;5037319;28;20056;-86
2022/05/08 05:36:24;;;;;;;2.83;2.25;;;16.50;96.70;;;;;;5056120;28;20044;-86
2022/05/08 05:38:57;;;;;;;3.17;2.35;;;16.60;96.70;;;;;;5050186;28;20055;-86
2022/05/08 05:41:26;;;;;;;3.10;2.42;;;16.70;96.70;;;;;;5066790;28;20136;-85
2022/05/08 05:43:55;;;;;;;5.13;2.50;;;16.80;96.70;;;;;;5051370;28;20033;-85
2022/05/08 05:49:11;;;;;;;;;;;17.00;96.70;;;;;;5066453;28;20056;-85
2022/05/08 05:51:39;;;;;;;2.70;2.42;;;17.00;96.70;;;;;;5065811;28;20027;-86
2022/05/08 05:54:07;;;;;;;3.58;2.30;;;17.10;96.70;;;;;;5047435;28;20055;-84
2022/05/08 05:56:37;;;;;;;2.20;2.00;;;17.10;96.70;;;;;;5055514;28;20037;-86
2022/05/08 05:59:05;;;;;;;5.10;2.20;;;17.20;96.70;;;;;;5065021;28;20041;-85
2022/05/08 06:01:53;;;;;;;7.00;2.42;;;17.30;96.70;;;;;;5054942;28;20429;-85
2022/05/08 06:04:23;;;;;;;7.63;2.40;;;17.30;96.70;;;;;;5051953;28;20051;-86
2022/05/08 06:06:52;;;;;;;3.80;2.20;;;17.40;96.70;;;;;;5054964;28;20409;-86
2022/05/08 06:09:20;;;;;;;3.65;2.00;;;17.40;96.70;;;;;;5064941;28;20053;-86
2022/05/08 06:11:48;;;;;;;3.90;1.80;;;17.40;96.70;;;;;;5037345;28;20044;-86
2022/05/08 06:14:17;;;;;;;2.85;2.00;;;17.50;96.70;;;;;;5058728;28;20534;-86
2022/05/08 06:16:45;;;;;;;2.58;2.05;;;17.50;96.70;;;;;;5061724;28;20071;-86
2022/05/08 06:19:13;;;;;;;5.32;2.13;;;17.60;96.70;;;;;;5066732;28;20081;-86
2022/05/08 06:21:43;;;;;;;5.40;2.60;;;17.70;96.70;;;;;;5065050;28;20050;-86
2022/05/08 06:24:13;;;;;;;3.13;1.85;;;17.80;96.70;;;;;;5060948;28;20044;-86
2022/05/08 06:26:41;;;;;;;3.00;1.88;;;17.80;96.70;;;;;;5064304;28;20074;-85
2022/05/08 06:29:09;;;;;;;3.58;1.90;;;17.90;96.70;;;;;;5066908;28;20127;-85
2022/05/08 06:31:37;;;;;;;4.78;1.80;;;18.00;96.70;;;;;;5058615;28;20075;-86
2022/05/08 06:34:06;;;;;;;3.83;1.80;;;18.10;96.70;;;;;;5064536;28;20131;-86
2022/05/08 06:36:46;;;;;;;3.15;1.77;;;18.20;96.70;;;;;;5044069;28;20456;-85
2022/05/08 06:39:14;;;;;;;2.47;1.60;;;18.20;96.70;;;;;;5046169;28;20130;-86
2022/05/08 06:41:42;;;;;;;3.75;1.90;;;18.30;96.70;;;;;;5063590;28;20061;-84
2022/05/08 06:44:13;;;;;;;3.40;1.75;;;18.40;96.70;;;;;;5035179;28;20079;-85
2022/05/08 06:46:41;;;;;;;3.55;2.10;;;18.50;96.70;;;;;;5062222;28;20072;-85
2022/05/08 06:49:09;;;;;;;2.08;1.88;;;18.60;96.70;;;;;;5064797;28;20197;-85
2022/05/08 06:51:37;;;;;;;2.13;1.80;;;18.60;96.70;;;;;;5057573;28;20063;-85
2022/05/08 06:54:06;;;;;;;4.00;2.33;;;18.70;96.70;;;;;;5071328;28;20040;-85
2022/05/08 06:56:36;;;;;;;4.57;2.38;;;18.70;96.70;;;;;;5069419;28;20059;-85
2022/05/08 07:01:51;;;;;;;3.78;2.38;;;18.90;96.70;;;;;;5070870;28;20374;-85
2022/05/08 07:04:20;;;;;;;5.50;2.40;;;19.00;96.70;;;;;;5064295;28;20047;-85
2022/05/08 07:06:50;;;;;;;2.42;2.15;;;19.10;96.70;;;;;;5070098;28;20123;-84
2022/05/08 07:09:22;;;;;;;3.08;1.70;;;19.20;96.70;;;;;;5064909;28;20041;-85
2022/05/08 07:11:50;;;;;;;3.75;1.88;;;19.20;96.70;;;;;;5069875;28;20068;-84
2022/05/08 07:14:18;;;;;;;2.30;1.70;;;19.20;96.70;;;;;;5061338;28;20071;-85
2022/05/08 07:16:46;;;;;;;2.38;1.88;;;19.30;96.70;;;;;;5058039;28;20047;-85
2022/05/08 07:19:15;;;;;;;2.33;1.60;;;19.50;96.70;;;;;;5058464;28;20099;-85
2022/05/08 07:21:44;;;;;;;2.58;1.70;;;19.70;96.70;;;;;;5053407;28;20044;-84
2022/05/08 07:24:12;;;;;;;2.33;1.65;;;19.90;96.70;;;;;;5061494;28;20049;-85
2022/05/08 07:26:42;;;;;;;3.92;1.90;;;19.90;96.70;;;;;;5062785;28;20480;-85
2022/05/08 07:29:10;;;;;;;3.60;1.85;;;20.00;96.70;;;;;;5062962;28;20045;-85
2022/05/08 07:31:38;;;;;;;2.35;1.80;;;20.10;96.70;;;;;;5066385;28;20049;-84
2022/05/08 07:36:53;;;;;;;3.70;1.65;;;20.20;96.70;;;;;;5061756;28;20341;-85
2022/05/08 07:39:21;;;;;;;2.70;1.88;;;20.40;96.70;;;;;;5066845;28;20097;-84
2022/05/08 07:41:51;;;;;;;2.85;1.80;;;20.50;96.70;;;;;;5068646;28;20060;-85
2022/05/08 07:44:20;;;;;;;2.72;1.92;;;20.50;96.70;;;;;;5044547;28;20466;-85
2022/05/08 07:46:48;;;;;;;4.70;1.83;;;20.60;96.70;;;;;;5065801;28;20147;-85
2022/05/08 07:49:16;;;;;;;3.05;1.70;;;20.50;96.70;;;;;;5053067;28;20083;-86
2022/05/08 07:51:44;;;;;;;3.75;1.80;;;20.50;96.70;;;;;;5060382;28;20049;-84
2022/05/08 07:54:14;;;;;;;3.80;1.85;;;20.60;96.70;;;;;;5060362;28;20505;-84
2022/05/08 07:56:43;;;;;;;2.30;1.92;;;20.60;96.70;;;;;;5051897;28;20056;-87
2022/05/08 07:59:16;;;;;;;3.92;1.80;;;20.60;96.70;;;;;;5064256;28;20040;-85
2022/05/08 08:01:44;;;;;;;1.92;1.60;;;20.60;96.70;;;;;;5060956;28;20136;-81
2022/05/08 08:04:18;;;;;;;1.83;1.67;;;20.70;96.70;;;;;;5057803;28;20135;-81
2022/05/08 08:06:46;;;;;;;2.58;1.65;;;20.50;96.70;;;;;;5048444;28;20041;-82
2022/05/08 08:09:15;;;;;;;2.60;1.60;;;20.50;96.70;;;;;;5046024;28;20055;-81
2022/05/08 08:11:43;;;;;;;3.85;1.88;;;20.50;96.70;;;;;;5050201;28;20053;-78
2022/05/08 08:14:12;;;;;;;3.28;1.88;;;20.50;96.70;;;;;;5060056;28;20048;-80
2022/05/08 08:17:02;;;;;;;3.47;1.98;;;20.60;96.70;;;;;;5045761;28;20131;-79
2022/05/08 08:19:31;;;;;;;4.03;1.55;;;20.50;96.70;;;;;;5048751;28;20605;-82
2022/05/08 08:22:00;;;;;;;2.47;1.73;;;20.60;96.70;;;;;;5063707;28;20486;-82
2022/05/08 08:24:28;;;;;;;4.32;1.95;;;20.70;96.70;;;;;;5064484;28;20688;-80
2022/05/08 08:26:56;;;;;;;2.42;1.92;;;20.80;96.70;;;;;;5035995;28;20045;-79
2022/05/08 08:29:25;;;;;;;4.25;2.42;;;20.90;96.70;;;;;;5063970;28;20356;-80
2022/05/08 08:31:53;;;;;;;2.10;1.90;;;21.10;96.70;;;;;;5041561;28;20068;-80
2022/05/08 08:34:22;;;;;;;1.92;1.58;;;21.00;96.70;;;;;;5055491;28;20048;-80
2022/05/08 08:36:51;;;;;;;1.88;1.75;;;21.00;96.70;;;;;;5049700;28;20033;-80
2022/05/08 08:39:19;;;;;;;2.78;2.00;;;20.80;96.70;;;;;;5042428;28;20052;-80
2022/05/08 08:41:59;;;;;;;2.67;1.80;;;20.80;96.70;;;;;;5053812;28;20053;-80
2022/05/08 08:50:06;;;;;;;3.13;1.88;;;21.00;96.70;;;;;;5050600;28;20072;-81
2022/05/08 08:52:36;;;;;;;2.47;1.80;;;21.30;96.70;;;;;;5056629;28;20498;-80
2022/05/08 08:55:07;;;;;;;2.47;1.90;;;21.40;96.70;;;;;;5057456;28;20495;-80
2022/05/08 08:57:36;;;;;;;3.50;2.50;;;21.50;96.70;;;;;;5054738;28;20060;-81
2022/05/08 09:00:06;;;;;;;7.82;2.20;;;21.70;96.70;;;;;;5057975;28;20048;-81
2022/05/08 09:02:35;;;;;;;4.85;1.98;;;21.80;96.70;;;;;;5064207;28;20125;-80
2022/05/08 09:05:10;;;;;;;3.33;1.92;;;21.80;96.70;;;;;;5043652;28;20084;-80
2022/05/08 09:07:44;;;;;;;5.10;1.80;;;21.90;96.70;;;;;;5055466;28;20041;-78
2022/05/08 09:10:14;;;;;;;1.85;1.67;;;22.20;96.70;;;;;;5060675;28;20076;-80
2022/05/08 09:12:44;;;;;;;3.00;1.77;;;22.30;96.70;;;;;;5037908;28;20057;-82
2022/05/08 09:15:20;;;;;;;2.65;1.90;;;22.30;96.70;;;;;;5054800;28;20086;-82
2022/05/08 09:17:53;;;;;;;5.00;2.15;;;22.20;96.70;;;;;;5037397;28;20049;-81
2022/05/08 09:20:32;;;;;;;2.03;1.40;;;22.10;96.70;;;;;;5035115;28;20135;-79
2022/05/08 09:23:09;;;;;;;3.30;1.80;;;22.20;96.70;;;;;;5046821;28;20052;-81
2022/05/08 09:25:49;;;;;;;3.78;1.92;;;22.40;96.70;;;;;;5049712;28;20045;-80
2022/05/08 09:28:36;;;;;;;3.45;2.00;;;22.40;96.70;;;;;;5053193;28;20094;-84
2022/05/08 09:31:06;;;;;;;2.55;1.63;;;22.40;96.70;;;;;;5066996;28;20047;-85
2022/05/08 09:33:35;;;;;;;3.35;1.75;;;22.50;96.70;;;;;;5058902;28;20059;-86
2022/05/08 09:36:07;;;;;;;4.32;1.92;;;22.70;96.70;;;;;;5066979;28;20629;-84
2022/05/08 09:38:48;;;;;;;3.08;1.70;;;22.80;96.70;;;;;;5049835;28;20048;-84
2022/05/08 09:41:18;;;;;;;4.03;1.90;;;23.00;96.70;;;;;;5053394;28;20048;-81
2022/05/08 09:43:47;;;;;;;2.45;1.73;;;23.20;96.70;;;;;;5055621;28;20044;-84
2022/05/08 09:46:15;;;;;;;2.67;1.80;;;23.40;96.70;;;;;;5042142;28;20099;-82
2022/05/08 09:48:44;;;;;;;2.83;1.75;;;23.60;96.70;;;;;;5058260;28;20711;-82
2022/05/08 09:51:15;;;;;;;2.83;2.28;;;23.70;96.70;;;;;;5039105;28;20087;-82
2022/05/08 09:53:46;;;;;;;4.82;2.42;;;23.70;96.70;;;;;;5058836;28;20063;-82
2022/05/08 09:56:14;;;;;;;3.63;2.08;;;23.80;96.70;;;;;;5055215;28;20593;-79
2022/05/08 09:58:43;;;;;;;5.95;2.00;;;23.80;96.70;;;;;;5056623;28;20070;-80
2022/05/08 10:01:14;;;;;;;4.88;2.10;;;23.80;96.70;;;;;;5051302;28;20149;-79
2022/05/08 10:03:46;;;;;;;4.75;1.73;;;23.90;96.70;;;;;;5053340;28;20044;-80
2022/05/08 10:06:17;;;;;;;2.20;1.88;;;24.00;96.70;;;;;;5051185;28;20045;-79
2022/05/08 10:08:46;;;;;;;4.82;1.90;;;23.90;96.70;;;;;;5054282;28;20836;-78
2022/05/08 10:14:08;;;;;;;5.68;2.22;;;24.20;96.70;;;;;;5049627;28;20059;-78
2022/05/08 10:16:50;;;;;;;6.68;3.00;;;24.20;96.70;;;;;;5056943;28;20060;-79
2022/05/08 10:19:54;;;;;;;5.68;2.60;;;24.20;96.70;;;;;;5051222;28;20513;-79
2022/05/08 10:22:24;;;;;;;3.35;1.83;;;24.30;96.70;;;;;;5035079;28;20041;-79
2022/05/08 10:25:09;;;;;;;3.05;2.35;;;24.30;96.70;;;;;;5053105;28;20063;-78
2022/05/08 10:27:37;;;;;;;3.78;2.42;;;24.30;96.70;;;;;;5054695;28;20071;-79
2022/05/08 10:30:30;;;;;;;4.00;2.00;;;24.40;96.70;;;;;;5051629;28;20064;-79
2022/05/08 10:32:58;;;;;;;4.45;2.30;;;24.20;96.70;;;;;;5042200;28;20165;-79
2022/05/08 10:35:28;;;;;;;3.33;2.30;;;24.20;96.70;;;;;;5050772;28;20053;-79
2022/05/08 10:38:25;;;;;;;4.28;2.25;;;24.40;96.70;;;;;;5059054;28;20094;-80
2022/05/08 10:40:55;;;;;;;3.28;2.08;;;24.90;96.70;;;;;;5043588;28;20061;-79
2022/05/08 10:43:28;;;;;;;3.30;2.10;;;25.30;96.70;;;;;;5034912;28;20064;-80
2022/05/08 10:46:20;;;;;;;2.55;1.95;;;25.50;96.70;;;;;;5054251;28;20143;-79
2022/05/08 10:48:49;;;;;;;2.83;1.58;;;25.60;96.70;;;;;;5056788;28;20060;-80
2022/05/08 10:51:17;;;;;;;3.70;1.63;;;25.80;96.70;;;;;;5039665;28;20095;-79
2022/05/08 10:53:49;;;;;;;2.75;1.38;;;25.50;96.70;;;;;;5058031;28;20059;-80
2022/05/08 10:56:16;;;;;;;5.20;1.80;;;25.40;96.70;;;;;;5038374;28;20586;-79
2022/05/08 10:58:53;;;;;;;3.15;1.77;;;25.40;96.70;;;;;;5057133;28;20044;-80
2022/05/08 11:01:22;;;;;;;4.03;1.70;;;25.40;96.70;;;;;;5060302;28;20048;-80
2022/05/08 11:03:51;;;;;;;4.78;1.65;;;25.50;96.70;;;;;;5058008;28;20048;-80
2022/05/08 11:06:21;;;;;;;3.45;1.75;;;25.60;96.70;;;;;;5053622;28;20051;-81
2022/05/08 11:08:59;;;;;;;2.83;1.73;;;25.70;96.70;;;;;;5053627;28;20048;-81
2022/05/08 11:11:29;;;;;;;4.45;1.88;;;25.90;96.70;;;;;;5057074;28;20125;-80
2022/05/08 11:13:57;;;;;;;3.22;2.08;;;26.10;96.70;;;;;;5057962;28;20059;-80
2022/05/08 11:16:33;;;;;;;5.10;1.70;;;26.30;96.70;;;;;;5058834;28;20480;-80
2022/05/08 11:19:03;;;;;;;6.60;1.77;;;26.10;96.70;;;;;;5058321;28;20040;-80
2022/05/08 11:21:32;;;;;;;4.55;2.00;;;25.90;96.70;;;;;;5037091;28;20041;-81
2022/05/08 11:24:03;;;;;;;3.50;1.95;;;25.90;96.70;;;;;;5043835;28;20044;-81
2022/05/08 11:26:33;;;;;;;4.18;1.50;;;26.10;96.70;;;;;;5051986;28;20045;-80
2022/05/08 11:29:01;;;;;;;2.55;1.80;;;25.90;96.70;;;;;;5042020;28;20383;-81
2022/05/08 11:31:33;;;;;;;3.47;1.80;;;25.70;96.70;;;;;;5059513;28;20075;-81
2022/05/08 11:36:47;;;;;;;4.90;2.15;;;25.90;96.70;;;;;;5057815;28;20056;-81
2022/05/08 11:39:19;;;;;;;3.33;1.80;;;25.80;96.70;;;;;;5051457;28;20068;-81
2022/05/08 11:41:49;;;;;;;3.80;2.10;;;25.80;96.70;;;;;;5060488;28;20059;-81
2022/05/08 11:44:27;;;;;;;4.13;2.00;;;26.30;96.70;;;;;;5059045;28;20062;-81
2022/05/08 11:46:56;;;;;;;3.15;1.77;;;26.50;96.70;;;;;;5063597;28;20045;-80
2022/05/08 11:49:26;;;;;;;2.38;1.73;;;26.30;96.70;;;;;;5062311;28;20421;-81
2022/05/08 11:51:56;;;;;;;4.00;2.00;;;25.90;96.70;;;;;;5058299;28;20052;-80
2022/05/08 11:54:27;;;;;;;3.10;1.90;;;25.60;96.70;;;;;;5062201;28;20045;-80
2022/05/08 11:57:16;;;;;;;5.60;2.00;;;25.30;96.70;;;;;;5052393;28;20129;-81
2022/05/08 11:59:45;;;;;;;3.30;1.80;;;25.00;96.70;;;;;;5052982;28;20502;-80
2022/05/08 12:02:13;;;;;;;3.28;1.70;;;24.90;96.70;;;;;;5041592;28;20036;-81
2022/05/08 12:04:51;;;;;;;2.22;1.70;;;25.00;96.70;;;;;;5057047;28;20048;-81
2022/05/08 12:07:19;;;;;;;7.03;2.08;;;25.40;96.70;;;;;;5044891;28;20521;-81
2022/05/08 12:09:55;;;;;;;3.80;1.90;;;25.20;96.70;;;;;;5058708;28;20507;-80
2022/05/08 12:12:28;;;;;;;6.00;2.15;;;25.10;96.70;;;;;;5055730;28;20045;-81
2022/05/08 12:15:03;;;;;;;3.13;1.88;;;25.20;96.70;;;;;;5040894;28;20143;-80
2022/05/08 12:17:53;;;;;;;2.92;1.52;;;25.50;96.70;;;;;;5059521;28;20045;-81
2022/05/08 12:20:27;;;;;;;3.40;1.50;;;25.40;96.70;;;;;;5063806;28;20071;-81
2022/05/08 12:23:00;;;;;;;3.17;1.80;;;25.20;96.70;;;;;;5057421;28;20045;-81
2022/05/08 12:25:30;;;;;;;7.65;2.10;;;25.00;96.70;;;;;;5061567;28;20088;-81
2022/05/08 12:27:58;;;;;;;6.95;2.22;;;24.80;96.70;;;;;;5059776;28;20123;-82
2022/05/08 12:30:25;;;;;;;3.58;1.80;;;24.60;96.70;;;;;;5039819;28;20100;-81
2022/05/08 12:32:53;;;;;;;5.72;2.17;;;24.60;96.70;;;;;;5045720;28;20616;-81
2022/05/08 12:35:21;;;;;;;3.83;1.80;;;24.80;96.70;;;;;;5043560;28;20104;-81
2022/05/08 12:37:50;;;;;;;4.15;1.83;;;25.10;96.70;;;;;;5057945;28;20573;-82
2022/05/08 12:40:18;;;;;;;7.03;2.22;;;25.30;96.70;;;;;;5061038;28;20498;-82
2022/05/08 12:42:48;;;;;;;5.60;2.20;;;25.60;96.70;;;;;;5038431;28;20557;-82
2022/05/08 12:45:16;;;;;;;4.40;1.40;;;26.00;96.70;;;;;;5056212;28;20056;-81
2022/05/08 12:47:44;;;;;;;5.03;1.85;;;26.30;96.70;;;;;;5059476;28;20052;-82
2022/05/08 12:50:12;;;;;;;4.82;2.22;;;26.60;96.70;;;;;;5049889;28;20131;-81
2022/05/08 12:52:45;;;;;;;4.75;1.63;;;26.50;96.70;;;;;;5040072;28;20045;-82
2022/05/08 12:55:15;;;;;;;7.07;1.88;;;26.50;96.70;;;;;;5059347;28;20059;-81
2022/05/08 13:00:32;;;;;;;6.70;2.05;;;26.70;96.70;;;;;;5054912;28;20055;-82
2022/05/08 13:03:01;;;;;;;5.85;2.20;;;26.80;96.70;;;;;;5038093;28;20041;-82
2022/05/08 13:05:29;;;;;;;4.30;1.98;;;27.00;96.70;;;;;;5042249;28;20506;-82
2022/05/08 13:07:57;;;;;;;7.07;2.47;;;26.90;96.70;;;;;;5046538;28;20033;-83
2022/05/08 13:10:26;;;;;;;6.90;2.00;;;26.80;96.50;;;;;;5046432;28;20347;-82
2022/05/08 13:13:01;;;;;;;4.57;2.30;;;26.50;96.40;;;;;;5057543;28;20041;-80
2022/05/08 13:15:29;;;;;;;6.95;1.85;;;26.60;96.10;;;;;;5058985;28;20139;-80
2022/05/08 13:17:58;;;;;;;5.13;2.15;;;26.90;95.40;;;;;;5057423;28;20501;-80
2022/05/08 13:20:26;;;;;;;3.63;1.75;;;27.30;94.90;;;;;;5040296;28;20318;-83
2022/05/08 13:22:54;;;;;;;4.05;2.17;;;27.60;95.10;;;;;;5053553;28;20064;-83
2022/05/08 13:25:22;;;;;;;5.13;2.10;;;27.90;93.50;;;;;;5052166;28;20145;-82
2022/05/08 13:27:50;;;;;;;4.13;2.00;;;27.70;94.10;;;;;;5056604;28;20072;-83
2022/05/08 13:30:18;;;;;;;4.40;1.92;;;27.70;93.80;;;;;;5042146;28;20413;-82
2022/05/08 13:32:46;;;;;;;4.72;2.15;;;28.00;93.30;;;;;;5058862;28;20046;-81
2022/05/08 13:35:16;;;;;;;5.53;2.08;;;28.10;93.60;;;;;;5042061;28;20052;-82